Disclaimer

Please do not use the information listed here in-flight or in-navigation, as they are not provided to us by the airports but are provided by volunteers, so they might be outdated.

Search


Regions


Airport information page

No radio frequency information is available.

Airport informations:
Latitude: 45° 06' 32.99" N
Longitude: 042° 06' 46.00" E
Elevation: 1486 feet - 453 meters
Operating hours: 24 hour operations
Operating agency: Civil government, landing fees and diplomatic clearance may be required
Timezone: UTC+3(+4DT) - Last Sunday in March to last Sunday in October
Fuel: N/A

Runway information:
07/25 - 8631 x 157 feet< - >2631 x 48 meters

Recent METARs:
URMT 190330Z 19003MPS 9999 FEW019 00/M00 Q1023 R25/290150 NOSIG RMK QFE728
URMT 190400Z 20003MPS 9999 FEW018 00/M00 Q1023 R25/290150 NOSIG RMK QFE729
URMT 190430Z 19002MPS CAVOK 01/01 Q1023 R25/290150 NOSIG RMK QFE729

Airport on the map: